Time;durP1;ratioP1;P1;durP2;ratioP2;P2;SDS_P1;SDS_P2;PMS_P1;PMS_P2;Temp;Humidity;BMP_temperature;BMP_pressure;BME280_temperature;BME280_humidity;BME280_pressure;Samples;Min_cycle;Max_cycle;Signal;HPM_P1;HPM_P2
2022/02/18 00:02:10;;;;;;;;;;;;;;;;;;5067949;28;20061;-75
2022/02/18 00:04:36;;;;;;;;;;;;;;;;;;5067388;28;20017;-76
2022/02/18 00:07:03;;;;;;;;;;;;;;;;;;5067565;28;19951;-76
2022/02/18 00:09:29;;;;;;;;;;;;;;;;;;5066904;28;19956;-75
2022/02/18 00:11:55;;;;;;;;;;;;;;;;;;5066006;28;19951;-75
2022/02/18 00:14:21;;;;;;;;;;;;;;;;;;5064587;28;20422;-75
2022/02/18 00:16:47;;;;;;;;;;;;;;;;;;5066869;28;19962;-74
2022/02/18 00:19:14;;;;;;;;;;;;;;;;;;5065248;28;19959;-74
2022/02/18 00:21:40;;;;;;;;;;;;;;;;;;5061803;28;20009;-74
2022/02/18 00:24:06;;;;;;;;;;;;;;;;;;5070465;28;19959;-75
2022/02/18 00:26:32;;;;;;;;;;;;;;;;;;5066038;27;19948;-73
2022/02/18 00:28:58;;;;;;;;;;;;;;;;;;5063880;28;19965;-75
2022/02/18 00:31:24;;;;;;;;;;;;;;;;;;5068364;28;19994;-75
2022/02/18 00:33:51;;;;;;;;;;;;;;;;;;5061840;28;20018;-75
2022/02/18 00:36:17;;;;;;;;;;;;;;;;;;5062954;28;19951;-74
2022/02/18 00:38:43;;;;;;;;;;;;;;;;;;5066051;28;20001;-74
2022/02/18 00:41:13;;;;;;;;;;;;;;;;;;5063512;28;19963;-74
2022/02/18 00:43:39;;;;;;;;;;;;;;;;;;5063976;28;19959;-75
2022/02/18 00:46:05;;;;;;;;;;;;;;;;;;5067382;28;19943;-74
2022/02/18 00:48:31;;;;;;;;;;;;;;;;;;5063446;28;20352;-74
2022/02/18 00:50:58;;;;;;;;;;;;;;;;;;5071047;28;19951;-74
2022/02/18 00:53:24;;;;;;;;;;;;;;;;;;5068303;28;19964;-75
2022/02/18 00:55:50;;;;;;;;;;;;;;;;;;5065160;28;20403;-74
2022/02/18 00:58:16;;;;;;;;;;;;;;;;;;5062077;28;19960;-74
2022/02/18 01:00:43;;;;;;;;;;;;;;;;;;5063335;28;19979;-74
2022/02/18 01:03:09;;;;;;;;;;;;;;;;;;5064452;28;20443;-75
2022/02/18 01:05:35;;;;;;;;;;;;;;;;;;5070301;28;19963;-74
2022/02/18 01:08:01;;;;;;;;;;;;;;;;;;5066177;28;19951;-75
2022/02/18 01:10:27;;;;;;;;;;;;;;;;;;5067691;28;20050;-74
2022/02/18 01:12:55;;;;;;;;;;;;;;;;;;5065934;28;19959;-74
2022/02/18 01:15:21;;;;;;;;;;;;;;;;;;5062611;28;19974;-75
2022/02/18 01:17:47;;;;;;;;;;;;;;;;;;5059918;28;20062;-75
2022/02/18 01:20:14;;;;;;;;;;;;;;;;;;5066150;28;19956;-74
2022/02/18 01:22:40;;;;;;;;;;;;;;;;;;5062033;28;19947;-75
2022/02/18 01:25:06;;;;;;;;;;;;;;;;;;5067374;28;20319;-74
2022/02/18 01:27:32;;;;;;;;;;;;;;;;;;5066580;28;20461;-74
2022/02/18 01:29:58;;;;;;;;;;;;;;;;;;5065360;28;19971;-74
2022/02/18 01:32:25;;;;;;;;;;;;;;;;;;5063040;28;20375;-74
2022/02/18 01:34:51;;;;;;;;;;;;;;;;;;5062876;28;21414;-74
2022/02/18 01:37:17;;;;;;;;;;;;;;;;;;5065114;28;20360;-75
2022/02/18 01:39:43;;;;;;;;;;;;;;;;;;5067056;28;20379;-74
2022/02/18 01:42:09;;;;;;;;;;;;;;;;;;5067050;28;20005;-74
2022/02/18 01:44:36;;;;;;;;;;;;;;;;;;5065047;28;20407;-74
2022/02/18 01:47:02;;;;;;;;;;;;;;;;;;5068045;28;19952;-74
2022/02/18 01:49:28;;;;;;;;;;;;;;;;;;5063948;28;20010;-74
2022/02/18 01:51:55;;;;;;;;;;;;;;;;;;5066722;28;19967;-74
2022/02/18 01:54:21;;;;;;;;;;;;;;;;;;5065677;28;19974;-73
2022/02/18 01:56:47;;;;;;;;;;;;;;;;;;5064093;28;20010;-73
2022/02/18 01:59:14;;;;;;;;;;;;;;;;;;5066200;28;19967;-73
2022/02/18 02:01:40;;;;;;;;;;;;;;;;;;5065010;28;20351;-73
2022/02/18 02:04:06;;;;;;;;;;;;;;;;;;5064075;28;19975;-73
2022/02/18 02:06:32;;;;;;;;;;;;;;;;;;5065568;28;19966;-73
2022/02/18 02:08:58;;;;;;;;;;;;;;;;;;5067252;28;19948;-73
2022/02/18 02:11:25;;;;;;;;;;;;;;;;;;5066045;28;19957;-74
2022/02/18 02:13:51;;;;;;;;;;;;;;;;;;5061008;28;19956;-74
2022/02/18 02:16:17;;;;;;;;;;;;;;;;;;5063364;28;19948;-74
2022/02/18 02:18:46;;;;;;;;;;;;;;;;;;5062301;28;20025;-74
2022/02/18 02:21:12;;;;;;;;;;;;;;;;;;5062121;28;19929;-74
2022/02/18 02:23:38;;;;;;;;;;;;;;;;;;5061107;28;21582;-75
2022/02/18 02:26:05;;;;;;;;;;;;;;;;;;5064664;28;20355;-73
2022/02/18 02:28:31;;;;;;;;;;;;;;;;;;5067752;28;19975;-74
2022/02/18 02:30:57;;;;;;;;;;;;;;;;;;5049935;28;20392;-73
2022/02/18 02:33:23;;;;;;;;;;;;;;;;;;5069227;28;19962;-73
2022/02/18 02:35:50;;;;;;;;;;;;;;;;;;5066861;28;19940;-72
2022/02/18 02:38:16;;;;;;;;;;;;;;;;;;5067550;28;19967;-74
2022/02/18 02:40:43;;;;;;;;;;;;;;;;;;5068436;28;19960;-74
2022/02/18 02:43:09;;;;;;;;;;;;;;;;;;5069810;28;19946;-74
2022/02/18 02:45:35;;;;;;;;;;;;;;;;;;5067834;28;19952;-74
2022/02/18 02:48:01;;;;;;;;;;;;;;;;;;5068962;28;19956;-74
2022/02/18 02:50:27;;;;;;;;;;;;;;;;;;5070137;28;19951;-74
2022/02/18 02:52:54;;;;;;;;;;;;;;;;;;5069352;28;19952;-75
2022/02/18 02:55:20;;;;;;;;;;;;;;;;;;5069052;28;19956;-75
2022/02/18 02:57:46;;;;;;;;;;;;;;;;;;5065075;28;19975;-75
2022/02/18 03:00:12;;;;;;;;;;;;;;;;;;5066457;28;20380;-74
2022/02/18 03:02:38;;;;;;;;;;;;;;;;;;5063974;28;19952;-75
2022/02/18 03:05:04;;;;;;;;;;;;;;;;;;5069837;28;19952;-76
2022/02/18 03:07:31;;;;;;;;;;;;;;;;;;5070788;28;20424;-76
2022/02/18 03:09:57;;;;;;;;;;;;;;;;;;5070707;28;19960;-75
2022/02/18 03:12:23;;;;;;;;;;;;;;;;;;5068812;28;20375;-74
2022/02/18 03:14:49;;;;;;;;;;;;;;;;;;5064880;28;19978;-75
2022/02/18 03:17:15;;;;;;;;;;;;;;;;;;5063252;28;20418;-74
2022/02/18 03:19:42;;;;;;;;;;;;;;;;;;5068529;28;19983;-74
2022/02/18 03:22:08;;;;;;;;;;;;;;;;;;5066566;28;19952;-74
2022/02/18 03:24:34;;;;;;;;;;;;;;;;;;5067623;28;20399;-75
2022/02/18 03:27:00;;;;;;;;;;;;;;;;;;5061215;28;19967;-75
2022/02/18 03:29:26;;;;;;;;;;;;;;;;;;5067221;28;19955;-75
2022/02/18 03:31:53;;;;;;;;;;;;;;;;;;5062905;28;19951;-75
2022/02/18 03:34:19;;;;;;;;;;;;;;;;;;5067977;28;19952;-74
2022/02/18 03:36:45;;;;;;;;;;;;;;;;;;5066928;28;19985;-73
2022/02/18 03:39:11;;;;;;;;;;;;;;;;;;5066113;28;20000;-74
2022/02/18 03:41:37;;;;;;;;;;;;;;;;;;5061071;28;20338;-75
2022/02/18 03:44:06;;;;;;;;;;;;;;;;;;5067243;28;19944;-76
2022/02/18 03:46:32;;;;;;;;;;;;;;;;;;5067831;28;19950;-74
2022/02/18 03:48:59;;;;;;;;;;;;;;;;;;5064125;28;20657;-74
2022/02/18 03:51:25;;;;;;;;;;;;;;;;;;5060639;28;19962;-74
2022/02/18 03:53:51;;;;;;;;;;;;;;;;;;5073117;28;21256;-74
2022/02/18 03:56:17;;;;;;;;;;;;;;;;;;5068650;28;19955;-74
2022/02/18 03:58:44;;;;;;;;;;;;;;;;;;5064328;28;19917;-74
2022/02/18 04:01:10;;;;;;;;;;;;;;;;;;5067863;28;19960;-74
2022/02/18 04:03:36;;;;;;;;;;;;;;;;;;5068311;28;20010;-75
2022/02/18 04:06:02;;;;;;;;;;;;;;;;;;5067131;28;20519;-75
2022/02/18 04:08:28;;;;;;;;;;;;;;;;;;5065590;28;19959;-75
2022/02/18 04:10:55;;;;;;;;;;;;;;;;;;5068520;28;19956;-75
2022/02/18 04:13:21;;;;;;;;;;;;;;;;;;5060880;28;19960;-75
2022/02/18 04:15:49;;;;;;;;;;;;;;;;;;5065514;28;19955;-75
2022/02/18 04:18:16;;;;;;;;;;;;;;;;;;5066724;28;19929;-75
2022/02/18 04:20:46;;;;;;;;;;;;;;;;;;5065406;28;20465;-77
2022/02/18 04:23:12;;;;;;;;;;;;;;;;;;5065834;28;19960;-76
2022/02/18 04:25:39;;;;;;;;;;;;;;;;;;5062652;28;20372;-77
2022/02/18 04:28:05;;;;;;;;;;;;;;;;;;5067582;28;19956;-77
2022/02/18 04:30:32;;;;;;;;;;;;;;;;;;5066026;28;19963;-76
2022/02/18 04:32:58;;;;;;;;;;;;;;;;;;5065163;28;20306;-77
2022/02/18 04:35:24;;;;;;;;;;;;;;;;;;5062322;28;20398;-78
2022/02/18 04:37:50;;;;;;;;;;;;;;;;;;5062970;28;19981;-77
2022/02/18 04:40:16;;;;;;;;;;;;;;;;;;5063335;28;19963;-77
2022/02/18 04:42:43;;;;;;;;;;;;;;;;;;5064375;28;19936;-77
2022/02/18 04:45:09;;;;;;;;;;;;;;;;;;5063968;28;19948;-76
2022/02/18 04:47:35;;;;;;;;;;;;;;;;;;5063526;28;20376;-78
2022/02/18 04:50:01;;;;;;;;;;;;;;;;;;5066135;28;19924;-78
2022/02/18 04:52:27;;;;;;;;;;;;;;;;;;5067311;28;19974;-77
2022/02/18 04:54:54;;;;;;;;;;;;;;;;;;5066809;28;19974;-78
2022/02/18 04:57:20;;;;;;;;;;;;;;;;;;5054205;28;19942;-77
2022/02/18 04:59:47;;;;;;;;;;;;;;;;;;5064543;28;19971;-78
2022/02/18 05:02:16;;;;;;;;;;;;;;;;;;5064638;28;19955;-78
2022/02/18 05:04:43;;;;;;;;;;;;;;;;;;5065844;28;19994;-78
2022/02/18 05:07:09;;;;;;;;;;;;;;;;;;5058213;28;19955;-79
2022/02/18 05:09:35;;;;;;;;;;;;;;;;;;5065424;28;19956;-78
2022/02/18 05:12:01;;;;;;;;;;;;;;;;;;5061985;28;19963;-79
2022/02/18 05:14:28;;;;;;;;;;;;;;;;;;5059278;28;19977;-78
2022/02/18 05:16:54;;;;;;;;;;;;;;;;;;5066379;28;19960;-78
2022/02/18 05:19:20;;;;;;;;;;;;;;;;;;5062966;28;19960;-78
2022/02/18 05:21:46;;;;;;;;;;;;;;;;;;5063403;28;20040;-77
2022/02/18 05:24:13;;;;;;;;;;;;;;;;;;5065746;28;19963;-77
2022/02/18 05:26:39;;;;;;;;;;;;;;;;;;5065748;28;20340;-76
2022/02/18 05:29:08;;;;;;;;;;;;;;;;;;5063416;28;20457;-76
2022/02/18 05:31:34;;;;;;;;;;;;;;;;;;5067309;28;19947;-76
2022/02/18 05:34:01;;;;;;;;;;;;;;;;;;5063782;28;19963;-76
2022/02/18 05:36:27;;;;;;;;;;;;;;;;;;5065108;28;19947;-76
2022/02/18 05:38:53;;;;;;;;;;;;;;;;;;5059227;28;19967;-77
2022/02/18 05:41:21;;;;;;;;;;;;;;;;;;5065080;28;20404;-77
2022/02/18 05:43:47;;;;;;;;;;;;;;;;;;5063273;28;19960;-75
2022/02/18 05:46:14;;;;;;;;;;;;;;;;;;5065687;28;19960;-76
2022/02/18 05:48:40;;;;;;;;;;;;;;;;;;5064284;28;20085;-75
2022/02/18 05:51:06;;;;;;;;;;;;;;;;;;5060511;28;19959;-75
2022/02/18 05:53:33;;;;;;;;;;;;;;;;;;5061257;28;20054;-76
2022/02/18 05:55:59;;;;;;;;;;;;;;;;;;5061608;28;20005;-75
2022/02/18 05:58:25;;;;;;;;;;;;;;;;;;5060277;28;20037;-77
2022/02/18 06:00:51;;;;;;;;;;;;;;;;;;5063992;28;19971;-75
2022/02/18 06:03:18;;;;;;;;;;;;;;;;;;5068615;28;20468;-75
2022/02/18 06:05:44;;;;;;;;;;;;;;;;;;5067150;28;19935;-76
2022/02/18 06:08:10;;;;;;;;;;;;;;;;;;5063679;28;19992;-75
2022/02/18 06:10:36;;;;;;;;;;;;;;;;;;5060687;28;19952;-75
2022/02/18 06:13:03;;;;;;;;;;;;;;;;;;5067558;28;20066;-75
2022/02/18 06:15:29;;;;;;;;;;;;;;;;;;5061720;28;19979;-76
2022/02/18 06:17:55;;;;;;;;;;;;;;;;;;5062659;28;20008;-77
2022/02/18 06:20:21;;;;;;;;;;;;;;;;;;5069955;28;19960;-76
2022/02/18 06:22:47;;;;;;;;;;;;;;;;;;5063900;28;19984;-76
2022/02/18 06:25:14;;;;;;;;;;;;;;;;;;5064812;28;19924;-75
2022/02/18 06:27:40;;;;;;;;;;;;;;;;;;5067591;28;20406;-76
2022/02/18 06:30:06;;;;;;;;;;;;;;;;;;5065503;28;19956;-76
2022/02/18 06:32:32;;;;;;;;;;;;;;;;;;5061779;28;19971;-75
2022/02/18 06:34:59;;;;;;;;;;;;;;;;;;5068808;28;19959;-75
2022/02/18 06:37:25;;;;;;;;;;;;;;;;;;5069117;28;19952;-75
2022/02/18 06:39:51;;;;;;;;;;;;;;;;;;5067237;28;20013;-76
2022/02/18 06:42:17;;;;;;;;;;;;;;;;;;5066632;28;20047;-76
2022/02/18 06:44:43;;;;;;;;;;;;;;;;;;5067062;28;20376;-75
2022/02/18 06:47:10;;;;;;;;;;;;;;;;;;5069108;28;19948;-76
2022/02/18 06:49:36;;;;;;;;;;;;;;;;;;5064783;28;19970;-76
2022/02/18 06:52:02;;;;;;;;;;;;;;;;;;5067313;28;20348;-75
2022/02/18 06:54:28;;;;;;;;;;;;;;;;;;5068146;28;20058;-75
2022/02/18 06:56:55;;;;;;;;;;;;;;;;;;5069500;28;19948;-75
2022/02/18 06:59:21;;;;;;;;;;;;;;;;;;5067736;28;19986;-75
2022/02/18 07:01:50;;;;;;;;;;;;;;;;;;5069254;28;19960;-76
2022/02/18 07:04:16;;;;;;;;;;;;;;;;;;5069574;28;19964;-75
2022/02/18 07:06:43;;;;;;;;;;;;;;;;;;5064045;28;19967;-74
2022/02/18 07:09:11;;;;;;;;;;;;;;;;;;5070181;28;19955;-75
2022/02/18 07:11:37;;;;;;;;;;;;;;;;;;5068446;28;19947;-75
2022/02/18 07:14:03;;;;;;;;;;;;;;;;;;5065524;28;19966;-75
2022/02/18 07:16:29;;;;;;;;;;;;;;;;;;5064069;28;19951;-75
2022/02/18 07:18:56;;;;;;;;;;;;;;;;;;5065962;28;19964;-76
2022/02/18 07:21:22;;;;;;;;;;;;;;;;;;5068527;28;20368;-75
2022/02/18 07:23:48;;;;;;;;;;;;;;;;;;5064770;27;19951;-74
2022/02/18 07:26:14;;;;;;;;;;;;;;;;;;5068978;28;19974;-74
2022/02/18 07:28:40;;;;;;;;;;;;;;;;;;5065509;28;19944;-75
2022/02/18 07:31:07;;;;;;;;;;;;;;;;;;5068407;28;20392;-75
2022/02/18 07:33:33;;;;;;;;;;;;;;;;;;5067711;28;19960;-75
2022/02/18 07:35:59;;;;;;;;;;;;;;;;;;5066976;28;19939;-75
2022/02/18 07:38:25;;;;;;;;;;;;;;;;;;5066488;28;20397;-75
2022/02/18 07:40:51;;;;;;;;;;;;;;;;;;5064703;28;21234;-75
2022/02/18 07:43:18;;;;;;;;;;;;;;;;;;5068214;28;19944;-75
2022/02/18 07:45:44;;;;;;;;;;;;;;;;;;5064124;28;19963;-76
2022/02/18 07:48:10;;;;;;;;;;;;;;;;;;5065766;28;19947;-75
2022/02/18 07:50:37;;;;;;;;;;;;;;;;;;5065481;28;19943;-76
2022/02/18 07:53:03;;;;;;;;;;;;;;;;;;5068025;28;20383;-76
2022/02/18 07:55:29;;;;;;;;;;;;;;;;;;5065506;28;19960;-76
2022/02/18 07:57:55;;;;;;;;;;;;;;;;;;5062921;28;19963;-76
2022/02/18 08:00:21;;;;;;;;;;;;;;;;;;5068054;28;19959;-76
2022/02/18 08:02:48;;;;;;;;;;;;;;;;;;5067285;28;19917;-76
2022/02/18 08:05:16;;;;;;;;;;;;;;;;;;5069374;28;19959;-76
2022/02/18 08:07:42;;;;;;;;;;;;;;;;;;5070117;28;19960;-76
2022/02/18 08:10:10;;;;;;;;;;;;;;;;;;5067724;28;19952;-76
2022/02/18 08:12:36;;;;;;;;;;;;;;;;;;5063949;28;19968;-76
2022/02/18 08:15:03;;;;;;;;;;;;;;;;;;5064094;28;19952;-77
2022/02/18 08:17:29;;;;;;;;;;;;;;;;;;5061525;28;19963;-76
2022/02/18 08:19:58;;;;;;;;;;;;;;;;;;5063826;28;19974;-76
2022/02/18 08:22:27;;;;;;;;;;;;;;;;;;5065413;28;19982;-76
2022/02/18 08:24:53;;;;;;;;;;;;;;;;;;5063902;28;19978;-76
2022/02/18 08:27:19;;;;;;;;;;;;;;;;;;5065262;28;19967;-76
2022/02/18 08:29:45;;;;;;;;;;;;;;;;;;5063724;28;20033;-76
2022/02/18 08:32:11;;;;;;;;;;;;;;;;;;5061850;28;19956;-76
2022/02/18 08:34:38;;;;;;;;;;;;;;;;;;5067004;28;20587;-76
2022/02/18 08:37:04;;;;;;;;;;;;;;;;;;5065280;28;19956;-76
2022/02/18 08:39:30;;;;;;;;;;;;;;;;;;5068275;28;19967;-76
2022/02/18 08:41:56;;;;;;;;;;;;;;;;;;5064589;28;19991;-76
2022/02/18 08:44:23;;;;;;;;;;;;;;;;;;5069038;28;19956;-76
2022/02/18 08:46:49;;;;;;;;;;;;;;;;;;5066545;28;20013;-78
2022/02/18 08:49:15;;;;;;;;;;;;;;;;;;5064155;28;19952;-76
2022/02/18 08:51:41;;;;;;;;;;;;;;;;;;5063983;28;19952;-76
2022/02/18 08:54:07;;;;;;;;;;;;;;;;;;5063714;28;19959;-76
2022/02/18 08:56:33;;;;;;;;;;;;;;;;;;5062583;28;19953;-76
2022/02/18 08:59:00;;;;;;;;;;;;;;;;;;5066521;28;20376;-75
2022/02/18 09:01:26;;;;;;;;;;;;;;;;;;5070423;28;19964;-76
2022/02/18 09:03:52;;;;;;;;;;;;;;;;;;5064155;28;19956;-76
2022/02/18 09:06:18;;;;;;;;;;;;;;;;;;5074128;28;19931;-74
2022/02/18 09:08:44;;;;;;;;;;;;;;;;;;5080403;28;19924;-75
2022/02/18 09:11:11;;;;;;;;;;;;;;;;;;5076972;28;19916;-75
2022/02/18 09:13:37;;;;;;;;;;;;;;;;;;5075981;28;19943;-75
2022/02/18 09:16:03;;;;;;;;;;;;;;;;;;5079024;28;19924;-73
2022/02/18 09:18:29;;;;;;;;;;;;;;;;;;5075545;28;20289;-74
2022/02/18 09:20:55;;;;;;;;;;;;;;;;;;5078022;28;19925;-73
2022/02/18 09:23:22;;;;;;;;;;;;;;;;;;5079180;28;20296;-74
2022/02/18 09:25:48;;;;;;;;;;;;;;;;;;5077766;28;19913;-73
2022/02/18 09:28:14;;;;;;;;;;;;;;;;;;5075700;28;19987;-74
2022/02/18 09:30:40;;;;;;;;;;;;;;;;;;5077421;28;19917;-74
2022/02/18 09:33:06;;;;;;;;;;;;;;;;;;5069377;28;19916;-73
2022/02/18 09:35:33;;;;;;;;;;;;;;;;;;5079489;28;19924;-74
2022/02/18 09:37:59;;;;;;;;;;;;;;;;;;5081477;28;19920;-74
2022/02/18 09:40:25;;;;;;;;;;;;;;;;;;5074107;28;20000;-74
2022/02/18 09:42:51;;;;;;;;;;;;;;;;;;5079907;28;19931;-74
2022/02/18 09:45:18;;;;;;;;;;;;;;;;;;5081310;28;19920;-74
2022/02/18 09:47:45;;;;;;;;;;;;;;;;;;5084309;28;19927;-75
2022/02/18 09:50:11;;;;;;;;;;;;;;;;;;5083795;28;20433;-74
2022/02/18 09:52:37;;;;;;;;;;;;;;;;;;5083154;28;19920;-75
2022/02/18 09:55:03;;;;;;;;;;;;;;;;;;5082327;28;19928;-74
2022/02/18 09:57:29;;;;;;;;;;;;;;;;;;5080067;28;20372;-74
2022/02/18 09:59:56;;;;;;;;;;;;;;;;;;5073823;28;19919;-74
2022/02/18 10:02:22;;;;;;;;;;;;;;;;;;5080907;28;19932;-74
2022/02/18 10:04:48;;;;;;;;;;;;;;;;;;5082020;28;19917;-73
2022/02/18 10:07:14;;;;;;;;;;;;;;;;;;5082280;28;20447;-74
2022/02/18 10:09:40;;;;;;;;;;;;;;;;;;5082833;28;19927;-73
2022/02/18 10:12:07;;;;;;;;;;;;;;;;;;5078840;28;19919;-74
2022/02/18 10:14:33;;;;;;;;;;;;;;;;;;5074821;28;19921;-73
2022/02/18 10:16:59;;;;;;;;;;;;;;;;;;5069657;28;19927;-73
2022/02/18 10:19:26;;;;;;;;;;;;;;;;;;5076134;28;20546;-74
2022/02/18 10:21:52;;;;;;;;;;;;;;;;;;5070799;28;19929;-73
2022/02/18 10:24:18;;;;;;;;;;;;;;;;;;5060135;28;19970;-73
2022/02/18 10:26:44;;;;;;;;;;;;;;;;;;5065442;28;19917;-74
2022/02/18 10:29:10;;;;;;;;;;;;;;;;;;5079323;28;19916;-74
2022/02/18 10:31:37;;;;;;;;;;;;;;;;;;5076357;28;19923;-74
2022/02/18 10:34:03;;;;;;;;;;;;;;;;;;5080134;28;19986;-74
2022/02/18 10:36:29;;;;;;;;;;;;;;;;;;5077663;28;19920;-74
2022/02/18 10:38:55;;;;;;;;;;;;;;;;;;5082090;28;19923;-75
2022/02/18 10:41:24;;;;;;;;;;;;;;;;;;5083336;28;19925;-73
2022/02/18 10:43:51;;;;;;;;;;;;;;;;;;5082758;28;20299;-73
2022/02/18 10:46:17;;;;;;;;;;;;;;;;;;5087895;28;19917;-74
2022/02/18 10:48:43;;;;;;;;;;;;;;;;;;5076239;28;19921;-76
2022/02/18 10:51:10;;;;;;;;;;;;;;;;;;5071865;28;19972;-75
2022/02/18 10:53:36;;;;;;;;;;;;;;;;;;5071038;28;19917;-74
2022/02/18 10:56:03;;;;;;;;;;;;;;;;;;5073814;28;20350;-74
2022/02/18 10:58:29;;;;;;;;;;;;;;;;;;5072339;28;20376;-74
2022/02/18 11:00:56;;;;;;;;;;;;;;;;;;5068700;28;20394;-74
2022/02/18 11:03:22;;;;;;;;;;;;;;;;;;5068202;28;19962;-74
2022/02/18 11:05:48;;;;;;;;;;;;;;;;;;5067776;28;19947;-74
2022/02/18 11:08:14;;;;;;;;;;;;;;;;;;5065050;28;19960;-74
2022/02/18 11:10:42;;;;;;;;;;;;;;;;;;5067094;28;19925;-74
2022/02/18 11:13:08;;;;;;;;;;;;;;;;;;5064146;28;19968;-74
2022/02/18 11:15:34;;;;;;;;;;;;;;;;;;5068140;28;19956;-74
2022/02/18 11:18:00;;;;;;;;;;;;;;;;;;5071349;28;20341;-74
2022/02/18 11:20:27;;;;;;;;;;;;;;;;;;5064882;28;19960;-74
2022/02/18 11:22:53;;;;;;;;;;;;;;;;;;5067785;28;19955;-73
2022/02/18 11:25:19;;;;;;;;;;;;;;;;;;5066203;28;19952;-74
2022/02/18 11:27:46;;;;;;;;;;;;;;;;;;5066862;28;19967;-74
2022/02/18 11:30:12;;;;;;;;;;;;;;;;;;5069466;28;19963;-74
2022/02/18 11:32:38;;;;;;;;;;;;;;;;;;5065692;28;19944;-74
2022/02/18 11:35:04;;;;;;;;;;;;;;;;;;5067640;28;19924;-74
2022/02/18 11:37:30;;;;;;;;;;;;;;;;;;5068358;28;19948;-73
2022/02/18 11:39:58;;;;;;;;;;;;;;;;;;5064436;28;19956;-74
2022/02/18 11:42:24;;;;;;;;;;;;;;;;;;5067425;28;19959;-74
2022/02/18 11:44:50;;;;;;;;;;;;;;;;;;5059098;28;20034;-74
2022/02/18 11:47:17;;;;;;;;;;;;;;;;;;5067905;28;19960;-74
2022/02/18 11:49:43;;;;;;;;;;;;;;;;;;5062565;28;19959;-74
2022/02/18 11:52:09;;;;;;;;;;;;;;;;;;5067117;28;20398;-74
2022/02/18 11:54:36;;;;;;;;;;;;;;;;;;5066729;28;19963;-74
2022/02/18 11:57:03;;;;;;;;;;;;;;;;;;5064799;28;20517;-74
2022/02/18 11:59:29;;;;;;;;;;;;;;;;;;5067851;28;19960;-74
2022/02/18 12:01:55;;;;;;;;;;;;;;;;;;5066951;28;20087;-74
2022/02/18 12:04:22;;;;;;;;;;;;;;;;;;5068074;28;19951;-75
2022/02/18 12:06:48;;;;;;;;;;;;;;;;;;5065242;28;19955;-74
2022/02/18 12:09:14;;;;;;;;;;;;;;;;;;5064567;28;20383;-75
2022/02/18 12:11:41;;;;;;;;;;;;;;;;;;5062606;28;20043;-74
2022/02/18 12:14:13;;;;;;;;;;;;;;;;;;5065581;28;19964;-74
2022/02/18 12:16:39;;;;;;;;;;;;;;;;;;5064102;28;20036;-75
2022/02/18 12:19:06;;;;;;;;;;;;;;;;;;5069341;28;20396;-75
2022/02/18 12:21:32;;;;;;;;;;;;;;;;;;5063504;28;20016;-75
2022/02/18 12:23:58;;;;;;;;;;;;;;;;;;5067090;28;19916;-74
2022/02/18 12:26:25;;;;;;;;;;;;;;;;;;5067623;28;19955;-75
2022/02/18 12:28:51;;;;;;;;;;;;;;;;;;5062728;28;19955;-74
2022/02/18 12:31:17;;;;;;;;;;;;;;;;;;5064034;28;19951;-75
2022/02/18 12:33:43;;;;;;;;;;;;;;;;;;5064660;28;19964;-74
2022/02/18 12:36:09;;;;;;;;;;;;;;;;;;5069067;28;19956;-75
2022/02/18 12:38:36;;;;;;;;;;;;;;;;;;5064616;28;19966;-75
2022/02/18 12:41:04;;;;;;;;;;;;;;;;;;5062999;28;20396;-75
2022/02/18 12:43:30;;;;;;;;;;;;;;;;;;5064546;28;19963;-75
2022/02/18 12:46:02;;;;;;;;;;;;;;;;;;5067280;28;20383;-75
2022/02/18 12:48:29;;;;;;;;;;;;;;;;;;5064551;28;19948;-75
2022/02/18 12:50:55;;;;;;;;;;;;;;;;;;5062498;28;19940;-75
2022/02/18 12:53:21;;;;;;;;;;;;;;;;;;5070759;28;20348;-75
2022/02/18 12:55:47;;;;;;;;;;;;;;;;;;5066170;28;19967;-75
2022/02/18 12:58:13;;;;;;;;;;;;;;;;;;5069235;28;20423;-75
2022/02/18 13:00:40;;;;;;;;;;;;;;;;;;5064753;28;19967;-75
2022/02/18 13:03:06;;;;;;;;;;;;;;;;;;5066257;28;20400;-75
2022/02/18 13:05:33;;;;;;;;;;;;;;;;;;5062768;28;19960;-74
2022/02/18 13:07:59;;;;;;;;;;;;;;;;;;5067703;28;19921;-75
2022/02/18 13:10:29;;;;;;;;;;;;;;;;;;5064017;28;20356;-74
2022/02/18 13:12:55;;;;;;;;;;;;;;;;;;5063766;28;20469;-75
2022/02/18 13:15:21;;;;;;;;;;;;;;;;;;5066596;28;20466;-74
2022/02/18 13:17:48;;;;;;;;;;;;;;;;;;5062204;28;19967;-73
2022/02/18 13:20:16;;;;;;;;;;;;;;;;;;5065138;28;20519;-75
2022/02/18 13:22:44;;;;;;;;;;;;;;;;;;5063493;28;19971;-75
2022/02/18 13:25:10;;;;;;;;;;;;;;;;;;5066162;28;19956;-74
2022/02/18 13:27:36;;;;;;;;;;;;;;;;;;5062049;28;19964;-75
2022/02/18 13:30:02;;;;;;;;;;;;;;;;;;5063247;28;20380;-74
2022/02/18 13:32:30;;;;;;;;;;;;;;;;;;5062984;28;19959;-75
2022/02/18 13:34:56;;;;;;;;;;;;;;;;;;5064376;28;19952;-74
2022/02/18 13:37:22;;;;;;;;;;;;;;;;;;5063641;28;19970;-74
2022/02/18 13:39:48;;;;;;;;;;;;;;;;;;5058463;28;19966;-74
2022/02/18 13:42:14;;;;;;;;;;;;;;;;;;5063799;28;19974;-75
2022/02/18 13:44:40;;;;;;;;;;;;;;;;;;5063016;28;19947;-74
2022/02/18 13:47:07;;;;;;;;;;;;;;;;;;5064279;28;20337;-74
2022/02/18 13:49:33;;;;;;;;;;;;;;;;;;5062314;28;20337;-75
2022/02/18 13:51:59;;;;;;;;;;;;;;;;;;5061546;28;19944;-75
2022/02/18 13:54:26;;;;;;;;;;;;;;;;;;5060675;28;20340;-74
2022/02/18 13:56:52;;;;;;;;;;;;;;;;;;5067483;28;20379;-74
2022/02/18 13:59:18;;;;;;;;;;;;;;;;;;5076506;28;19916;-74
2022/02/18 14:01:44;;;;;;;;;;;;;;;;;;5068746;28;19964;-74
2022/02/18 14:04:10;;;;;;;;;;;;;;;;;;5069144;28;19917;-74
2022/02/18 14:06:37;;;;;;;;;;;;;;;;;;5074419;28;20010;-74
2022/02/18 14:09:03;;;;;;;;;;;;;;;;;;5072440;28;19917;-73
2022/02/18 14:11:29;;;;;;;;;;;;;;;;;;5074921;28;19916;-74
2022/02/18 14:13:55;;;;;;;;;;;;;;;;;;5070126;28;19966;-73
2022/02/18 14:16:28;;;;;;;;;;;;;;;;;;5067781;28;20014;-73
2022/02/18 14:18:55;;;;;;;;;;;;;;;;;;5074514;28;20703;-74
2022/02/18 14:21:21;;;;;;;;;;;;;;;;;;5072653;28;20034;-73
2022/02/18 14:23:48;;;;;;;;;;;;;;;;;;5071313;28;19917;-73
2022/02/18 14:26:14;;;;;;;;;;;;;;;;;;5077709;28;19920;-74
2022/02/18 14:28:41;;;;;;;;;;;;;;;;;;5075863;28;20522;-73
2022/02/18 14:31:07;;;;;;;;;;;;;;;;;;5075870;28;19932;-73
2022/02/18 14:33:33;;;;;;;;;;;;;;;;;;5074027;28;19921;-73
2022/02/18 14:35:59;;;;;;;;;;;;;;;;;;5077742;28;19925;-73
2022/02/18 14:38:26;;;;;;;;;;;;;;;;;;5071438;28;19948;-74
2022/02/18 14:40:52;;;;;;;;;;;;;;;;;;5077274;28;19924;-74
2022/02/18 14:43:18;;;;;;;;;;;;;;;;;;5072698;28;19917;-73
2022/02/18 14:45:44;;;;;;;;;;;;;;;;;;5072092;28;19928;-73
2022/02/18 14:48:11;;;;;;;;;;;;;;;;;;5073948;28;19963;-73
2022/02/18 14:50:37;;;;;;;;;;;;;;;;;;5073754;28;19931;-74
2022/02/18 14:53:03;;;;;;;;;;;;;;;;;;5070633;28;19921;-75
2022/02/18 14:55:29;;;;;;;;;;;;;;;;;;5076824;28;19917;-74
2022/02/18 14:57:56;;;;;;;;;;;;;;;;;;5076831;28;20375;-74
2022/02/18 15:00:32;;;;;;;;;;;;;;;;;;5073439;28;19917;-73
2022/02/18 15:03:01;;;;;;;;;;;;;;;;;;5063548;28;20041;-73
2022/02/18 15:05:27;;;;;;;;;;;;;;;;;;5071253;28;19935;-74
2022/02/18 15:07:53;;;;;;;;;;;;;;;;;;5072560;28;19920;-74
2022/02/18 15:10:19;;;;;;;;;;;;;;;;;;5071795;28;19920;-74
2022/02/18 15:12:45;;;;;;;;;;;;;;;;;;5069799;28;20288;-73
2022/02/18 15:15:12;;;;;;;;;;;;;;;;;;5073122;28;19959;-73
2022/02/18 15:17:39;;;;;;;;;;;;;;;;;;5071175;28;19927;-74
2022/02/18 15:20:05;;;;;;;;;;;;;;;;;;5072985;28;19940;-74
2022/02/18 15:22:31;;;;;;;;;;;;;;;;;;5068450;28;19921;-74
2022/02/18 15:24:58;;;;;;;;;;;;;;;;;;5069432;28;19917;-73
2022/02/18 15:27:24;;;;;;;;;;;;;;;;;;5071945;28;19917;-74
2022/02/18 15:35:22;;;;;;;;;;;;;;;;;;5069772;28;19920;-74
2022/02/18 15:37:48;;;;;;;;;;;;;;;;;;5073346;28;19924;-74
2022/02/18 15:42:59;;;;;;;;;;;;;;;;;;5069502;28;21543;-73
2022/02/18 15:45:25;;;;;;;;;;;;;;;;;;5073488;28;19924;-73
2022/02/18 15:47:51;;;;;;;;;;;;;;;;;;5068661;28;20372;-72
2022/02/18 15:50:19;;;;;;;;;;;;;;;;;;5072033;28;19912;-73
2022/02/18 15:52:45;;;;;;;;;;;;;;;;;;5072617;28;19912;-74
2022/02/18 15:55:12;;;;;;;;;;;;;;;;;;5070922;28;19931;-74
2022/02/18 15:57:38;;;;;;;;;;;;;;;;;;5065602;28;19997;-73
2022/02/18 16:00:12;;;;;;;;;;;;;;;;;;5056888;28;19967;-74
2022/02/18 16:02:38;;;;;;;;;;;;;;;;;;5062964;28;19964;-73
2022/02/18 16:05:04;;;;;;;;;;;;;;;;;;5066000;28;19955;-73
2022/02/18 16:07:30;;;;;;;;;;;;;;;;;;5062327;28;20469;-73
2022/02/18 16:09:57;;;;;;;;;;;;;;;;;;5065473;28;19983;-73
2022/02/18 16:12:23;;;;;;;;;;;;;;;;;;5064412;28;19963;-73
2022/02/18 16:14:49;;;;;;;;;;;;;;;;;;5063967;27;20688;-73
2022/02/18 16:17:16;;;;;;;;;;;;;;;;;;5064718;28;19967;-74
2022/02/18 16:19:42;;;;;;;;;;;;;;;;;;5062143;28;19932;-74
2022/02/18 16:22:08;;;;;;;;;;;;;;;;;;5061508;28;19967;-73
2022/02/18 16:24:35;;;;;;;;;;;;;;;;;;5058623;28;20029;-73
2022/02/18 16:27:03;;;;;;;;;;;;;;;;;;5063488;28;19952;-73
2022/02/18 16:29:29;;;;;;;;;;;;;;;;;;5059542;28;19951;-72
2022/02/18 16:31:55;;;;;;;;;;;;;;;;;;5067784;28;20061;-72
2022/02/18 16:34:21;;;;;;;;;;;;;;;;;;5064170;28;19959;-72
2022/02/18 16:36:48;;;;;;;;;;;;;;;;;;5064008;28;19974;-73
2022/02/18 16:39:14;;;;;;;;;;;;;;;;;;5064531;28;19963;-72
2022/02/18 16:41:41;;;;;;;;;;;;;;;;;;5061672;28;19956;-73
2022/02/18 16:44:07;;;;;;;;;;;;;;;;;;5064544;28;19960;-73
2022/02/18 16:46:33;;;;;;;;;;;;;;;;;;5062625;28;19963;-72
2022/02/18 16:48:59;;;;;;;;;;;;;;;;;;5065915;28;19920;-73